sensor_id;sensor_type;location;lat;lon;timestamp;temperature;humidity
46029;DHT22;31763;48.180;7.904;2023-01-28T00:01:52;-0.50;99.90
46029;DHT22;31763;48.180;7.904;2023-01-28T00:04:18;-0.60;99.90
46029;DHT22;31763;48.180;7.904;2023-01-28T00:06:45;-0.60;99.90
46029;DHT22;31763;48.180;7.904;2023-01-28T00:09:12;-0.60;99.90
46029;DHT22;31763;48.180;7.904;2023-01-28T00:11:39;-0.80;99.90
46029;DHT22;31763;48.180;7.904;2023-01-28T00:14:06;-0.70;99.90
46029;DHT22;31763;48.180;7.904;2023-01-28T00:16:33;-0.70;99.90
46029;DHT22;31763;48.180;7.904;2023-01-28T00:19:00;-0.70;99.90
46029;DHT22;31763;48.180;7.904;2023-01-28T00:21:27;-0.60;99.90
46029;DHT22;31763;48.180;7.904;2023-01-28T00:23:55;-0.70;99.90
46029;DHT22;31763;48.180;7.904;2023-01-28T00:26:23;-0.70;99.90
46029;DHT22;31763;48.180;7.904;2023-01-28T00:28:51;-0.60;99.90
46029;DHT22;31763;48.180;7.904;2023-01-28T00:31:20;-0.60;99.90
46029;DHT22;31763;48.180;7.904;2023-01-28T00:33:49;-0.70;99.90
46029;DHT22;31763;48.180;7.904;2023-01-28T00:36:17;-0.70;99.90
46029;DHT22;31763;48.180;7.904;2023-01-28T00:38:55;-0.60;99.90
46029;DHT22;31763;48.180;7.904;2023-01-28T00:41:25;-0.70;99.90
46029;DHT22;31763;48.180;7.904;2023-01-28T00:43:53;-0.60;99.90
46029;DHT22;31763;48.180;7.904;2023-01-28T00:46:21;-0.70;99.90
46029;DHT22;31763;48.180;7.904;2023-01-28T00:48:49;-0.80;99.90
46029;DHT22;31763;48.180;7.904;2023-01-28T00:51:17;-0.70;99.90
46029;DHT22;31763;48.180;7.904;2023-01-28T00:53:46;-0.60;99.90
46029;DHT22;31763;48.180;7.904;2023-01-28T00:56:14;-0.60;99.90
46029;DHT22;31763;48.180;7.904;2023-01-28T00:58:43;-0.60;99.90
46029;DHT22;31763;48.180;7.904;2023-01-28T01:01:21;-0.50;99.90
46029;DHT22;31763;48.180;7.904;2023-01-28T01:03:53;-0.50;99.90
46029;DHT22;31763;48.180;7.904;2023-01-28T01:06:31;-0.60;99.90
46029;DHT22;31763;48.180;7.904;2023-01-28T01:09:02;-0.60;99.90
46029;DHT22;31763;48.180;7.904;2023-01-28T01:11:33;-0.60;99.90
46029;DHT22;31763;48.180;7.904;2023-01-28T01:14:00;-0.60;99.90
46029;DHT22;31763;48.180;7.904;2023-01-28T01:16:31;-0.70;99.90
46029;DHT22;31763;48.180;7.904;2023-01-28T01:19:01;-0.70;99.90
46029;DHT22;31763;48.180;7.904;2023-01-28T01:21:29;-0.60;99.90
46029;DHT22;31763;48.180;7.904;2023-01-28T01:23:56;-0.60;99.90
46029;DHT22;31763;48.180;7.904;2023-01-28T01:26:23;-0.60;99.90
46029;DHT22;31763;48.180;7.904;2023-01-28T01:28:53;-0.60;99.90
46029;DHT22;31763;48.180;7.904;2023-01-28T01:31:21;-0.60;99.90
46029;DHT22;31763;48.180;7.904;2023-01-28T01:33:49;-0.60;99.90
46029;DHT22;31763;48.180;7.904;2023-01-28T01:36:17;-0.60;99.90
46029;DHT22;31763;48.180;7.904;2023-01-28T01:38:45;-0.60;99.90
46029;DHT22;31763;48.180;7.904;2023-01-28T01:41:28;-0.50;99.90
46029;DHT22;31763;48.180;7.904;2023-01-28T01:43:58;-0.50;99.90
46029;DHT22;31763;48.180;7.904;2023-01-28T01:46:40;-0.50;99.90
46029;DHT22;31763;48.180;7.904;2023-01-28T01:49:18;-0.70;99.90
46029;DHT22;31763;48.180;7.904;2023-01-28T01:51:50;-0.70;99.90
46029;DHT22;31763;48.180;7.904;2023-01-28T01:54:20;-0.70;99.90
46029;DHT22;31763;48.180;7.904;2023-01-28T01:56:49;-0.60;99.90
46029;DHT22;31763;48.180;7.904;2023-01-28T01:59:21;-0.60;99.90
46029;DHT22;31763;48.180;7.904;2023-01-28T02:01:51;-0.70;99.90
46029;DHT22;31763;48.180;7.904;2023-01-28T02:04:25;-0.70;99.90
46029;DHT22;31763;48.180;7.904;2023-01-28T02:06:55;-0.60;99.90
46029;DHT22;31763;48.180;7.904;2023-01-28T02:09:26;-0.60;99.90
46029;DHT22;31763;48.180;7.904;2023-01-28T02:12:02;-0.50;99.90
46029;DHT22;31763;48.180;7.904;2023-01-28T02:14:34;-0.60;99.90
46029;DHT22;31763;48.180;7.904;2023-01-28T02:17:03;-0.70;99.90
46029;DHT22;31763;48.180;7.904;2023-01-28T02:19:41;-0.60;99.90
46029;DHT22;31763;48.180;7.904;2023-01-28T02:25:42;-0.50;99.90
46029;DHT22;31763;48.180;7.904;2023-01-28T02:34:46;-0.70;99.90
46029;DHT22;31763;48.180;7.904;2023-01-28T02:37:24;-0.70;99.90
46029;DHT22;31763;48.180;7.904;2023-01-28T02:39:57;-0.80;99.90
46029;DHT22;31763;48.180;7.904;2023-01-28T02:42:29;-0.70;99.90
46029;DHT22;31763;48.180;7.904;2023-01-28T02:44:58;-0.60;99.90
46029;DHT22;31763;48.180;7.904;2023-01-28T02:47:25;-0.50;99.90
46029;DHT22;31763;48.180;7.904;2023-01-28T02:50:16;-0.50;99.90
46029;DHT22;31763;48.180;7.904;2023-01-28T02:52:55;-0.60;99.90
46029;DHT22;31763;48.180;7.904;2023-01-28T02:55:55;-0.70;99.90
46029;DHT22;31763;48.180;7.904;2023-01-28T02:58:41;-0.80;99.90
46029;DHT22;31763;48.180;7.904;2023-01-28T03:01:29;-0.70;99.90
46029;DHT22;31763;48.180;7.904;2023-01-28T03:04:22;-0.70;99.90
46029;DHT22;31763;48.180;7.904;2023-01-28T03:06:55;-0.70;99.90
46029;DHT22;31763;48.180;7.904;2023-01-28T03:09:24;-0.60;99.90
46029;DHT22;31763;48.180;7.904;2023-01-28T03:14:47;-0.50;99.90
46029;DHT22;31763;48.180;7.904;2023-01-28T03:17:43;-0.70;99.90
46029;DHT22;31763;48.180;7.904;2023-01-28T03:24:20;-0.70;99.90
46029;DHT22;31763;48.180;7.904;2023-01-28T03:27:33;-0.70;99.90
46029;DHT22;31763;48.180;7.904;2023-01-28T03:30:32;-0.70;99.90
46029;DHT22;31763;48.180;7.904;2023-01-28T03:33:23;-0.60;99.90
46029;DHT22;31763;48.180;7.904;2023-01-28T03:36:09;-0.80;99.90
46029;DHT22;31763;48.180;7.904;2023-01-28T03:38:55;-0.70;99.90
46029;DHT22;31763;48.180;7.904;2023-01-28T03:41:25;-0.80;99.90
46029;DHT22;31763;48.180;7.904;2023-01-28T03:43:52;-0.70;99.90
46029;DHT22;31763;48.180;7.904;2023-01-28T03:46:20;-0.80;99.90
46029;DHT22;31763;48.180;7.904;2023-01-28T03:48:47;-0.80;99.90
46029;DHT22;31763;48.180;7.904;2023-01-28T03:51:13;-0.70;99.90
46029;DHT22;31763;48.180;7.904;2023-01-28T03:53:40;-0.70;99.90
46029;DHT22;31763;48.180;7.904;2023-01-28T03:56:07;-0.80;99.90
46029;DHT22;31763;48.180;7.904;2023-01-28T03:58:34;-0.70;99.90
46029;DHT22;31763;48.180;7.904;2023-01-28T04:01:22;-0.70;99.90
46029;DHT22;31763;48.180;7.904;2023-01-28T04:03:49;-0.80;99.90
46029;DHT22;31763;48.180;7.904;2023-01-28T04:06:16;-0.80;99.90
46029;DHT22;31763;48.180;7.904;2023-01-28T04:08:43;-0.90;99.90
46029;DHT22;31763;48.180;7.904;2023-01-28T04:11:14;-0.80;99.90
46029;DHT22;31763;48.180;7.904;2023-01-28T04:13:46;-0.80;99.90
46029;DHT22;31763;48.180;7.904;2023-01-28T04:16:15;-0.90;99.90
46029;DHT22;31763;48.180;7.904;2023-01-28T04:18:43;-0.90;99.90
46029;DHT22;31763;48.180;7.904;2023-01-28T04:21:10;-0.90;99.90
46029;DHT22;31763;48.180;7.904;2023-01-28T04:23:38;-0.90;99.90
46029;DHT22;31763;48.180;7.904;2023-01-28T04:26:04;-0.90;99.90
46029;DHT22;31763;48.180;7.904;2023-01-28T04:28:31;-0.90;99.90
46029;DHT22;31763;48.180;7.904;2023-01-28T04:30:58;-0.90;99.90
46029;DHT22;31763;48.180;7.904;2023-01-28T04:33:25;-0.80;99.90
46029;DHT22;31763;48.180;7.904;2023-01-28T04:35:52;-0.70;99.90
46029;DHT22;31763;48.180;7.904;2023-01-28T04:38:19;-0.70;99.90
46029;DHT22;31763;48.180;7.904;2023-01-28T04:40:49;-0.60;99.90
46029;DHT22;31763;48.180;7.904;2023-01-28T04:43:19;-0.70;99.90
46029;DHT22;31763;48.180;7.904;2023-01-28T04:45:46;-0.80;99.90
46029;DHT22;31763;48.180;7.904;2023-01-28T04:48:15;-0.70;99.90
46029;DHT22;31763;48.180;7.904;2023-01-28T04:50:43;-0.70;99.90
46029;DHT22;31763;48.180;7.904;2023-01-28T04:53:11;-0.80;99.90
46029;DHT22;31763;48.180;7.904;2023-01-28T04:55:38;-0.80;99.90
46029;DHT22;31763;48.180;7.904;2023-01-28T04:58:05;-0.70;99.90
46029;DHT22;31763;48.180;7.904;2023-01-28T05:00:32;-0.60;99.90
46029;DHT22;31763;48.180;7.904;2023-01-28T05:02:59;-0.60;99.90
46029;DHT22;31763;48.180;7.904;2023-01-28T05:05:26;-0.60;99.90
46029;DHT22;31763;48.180;7.904;2023-01-28T05:07:54;-0.60;99.90
46029;DHT22;31763;48.180;7.904;2023-01-28T05:10:22;-0.60;99.90
46029;DHT22;31763;48.180;7.904;2023-01-28T05:12:49;-0.50;99.90
46029;DHT22;31763;48.180;7.904;2023-01-28T05:15:18;-0.60;99.90
46029;DHT22;31763;48.180;7.904;2023-01-28T05:17:46;-0.70;99.90
46029;DHT22;31763;48.180;7.904;2023-01-28T05:20:13;-0.60;99.90
46029;DHT22;31763;48.180;7.904;2023-01-28T05:22:41;-0.60;99.90
46029;DHT22;31763;48.180;7.904;2023-01-28T05:25:08;-0.60;99.90
46029;DHT22;31763;48.180;7.904;2023-01-28T05:27:35;-0.50;99.90
46029;DHT22;31763;48.180;7.904;2023-01-28T05:30:03;-0.50;99.90
46029;DHT22;31763;48.180;7.904;2023-01-28T05:32:32;-0.70;99.90
46029;DHT22;31763;48.180;7.904;2023-01-28T05:34:59;-0.50;99.90
46029;DHT22;31763;48.180;7.904;2023-01-28T05:37:25;-0.50;99.90
46029;DHT22;31763;48.180;7.904;2023-01-28T05:39:52;-0.50;99.90
46029;DHT22;31763;48.180;7.904;2023-01-28T05:42:19;-0.40;99.90
46029;DHT22;31763;48.180;7.904;2023-01-28T05:44:48;-0.40;99.90
46029;DHT22;31763;48.180;7.904;2023-01-28T05:47:14;-0.40;99.90
46029;DHT22;31763;48.180;7.904;2023-01-28T05:49:41;-0.50;99.90
46029;DHT22;31763;48.180;7.904;2023-01-28T05:52:08;-0.50;99.90
46029;DHT22;31763;48.180;7.904;2023-01-28T05:54:35;-0.50;99.90
46029;DHT22;31763;48.180;7.904;2023-01-28T05:57:02;-0.50;99.90
46029;DHT22;31763;48.180;7.904;2023-01-28T05:59:30;-0.50;99.90
46029;DHT22;31763;48.180;7.904;2023-01-28T06:01:57;-0.50;99.90
46029;DHT22;31763;48.180;7.904;2023-01-28T06:04:23;-0.50;99.90
46029;DHT22;31763;48.180;7.904;2023-01-28T06:06:50;-0.50;99.90
46029;DHT22;31763;48.180;7.904;2023-01-28T06:09:17;-0.50;99.90
46029;DHT22;31763;48.180;7.904;2023-01-28T06:11:44;-0.50;99.90
46029;DHT22;31763;48.180;7.904;2023-01-28T06:14:11;-0.50;99.90
46029;DHT22;31763;48.180;7.904;2023-01-28T06:16:38;-0.50;99.90
46029;DHT22;31763;48.180;7.904;2023-01-28T06:19:05;-0.40;99.90
46029;DHT22;31763;48.180;7.904;2023-01-28T06:21:32;-0.40;99.90
46029;DHT22;31763;48.180;7.904;2023-01-28T06:23:59;-0.50;99.90
46029;DHT22;31763;48.180;7.904;2023-01-28T06:26:26;-0.40;99.90
46029;DHT22;31763;48.180;7.904;2023-01-28T06:28:52;-0.40;99.90
46029;DHT22;31763;48.180;7.904;2023-01-28T06:31:19;-0.60;99.90
46029;DHT22;31763;48.180;7.904;2023-01-28T06:33:46;-0.50;99.90
46029;DHT22;31763;48.180;7.904;2023-01-28T06:36:13;-0.50;99.90
46029;DHT22;31763;48.180;7.904;2023-01-28T06:38:40;-0.40;99.90
46029;DHT22;31763;48.180;7.904;2023-01-28T06:41:06;-0.50;99.90
46029;DHT22;31763;48.180;7.904;2023-01-28T06:43:33;-0.50;99.90
46029;DHT22;31763;48.180;7.904;2023-01-28T06:46:00;-0.40;99.90
46029;DHT22;31763;48.180;7.904;2023-01-28T06:48:27;-0.40;99.90
46029;DHT22;31763;48.180;7.904;2023-01-28T06:50:54;-0.40;99.90
46029;DHT22;31763;48.180;7.904;2023-01-28T06:53:21;-0.50;99.90
46029;DHT22;31763;48.180;7.904;2023-01-28T06:55:48;-0.50;99.90
46029;DHT22;31763;48.180;7.904;2023-01-28T06:58:15;-0.50;99.90
46029;DHT22;31763;48.180;7.904;2023-01-28T07:00:42;-0.40;99.90
46029;DHT22;31763;48.180;7.904;2023-01-28T07:03:09;-0.50;99.90
46029;DHT22;31763;48.180;7.904;2023-01-28T07:05:36;-0.40;99.90
46029;DHT22;31763;48.180;7.904;2023-01-28T07:08:03;-0.50;99.90
46029;DHT22;31763;48.180;7.904;2023-01-28T07:10:30;-0.50;99.90
46029;DHT22;31763;48.180;7.904;2023-01-28T07:12:56;-0.40;99.90
46029;DHT22;31763;48.180;7.904;2023-01-28T07:15:23;-0.40;99.90
46029;DHT22;31763;48.180;7.904;2023-01-28T07:17:50;-0.50;99.90
46029;DHT22;31763;48.180;7.904;2023-01-28T07:20:17;-0.50;99.90
46029;DHT22;31763;48.180;7.904;2023-01-28T07:22:45;-0.40;99.90
46029;DHT22;31763;48.180;7.904;2023-01-28T07:25:12;-0.50;99.90
46029;DHT22;31763;48.180;7.904;2023-01-28T07:27:51;-0.50;99.90
46029;DHT22;31763;48.180;7.904;2023-01-28T07:30:19;-0.50;99.90
46029;DHT22;31763;48.180;7.904;2023-01-28T07:32:52;-0.40;99.90
46029;DHT22;31763;48.180;7.904;2023-01-28T07:35:20;-0.40;99.90
46029;DHT22;31763;48.180;7.904;2023-01-28T07:37:55;-0.30;99.90
46029;DHT22;31763;48.180;7.904;2023-01-28T07:40:24;-0.30;99.90
46029;DHT22;31763;48.180;7.904;2023-01-28T07:42:51;-0.40;99.90
46029;DHT22;31763;48.180;7.904;2023-01-28T07:45:21;-0.50;99.90
46029;DHT22;31763;48.180;7.904;2023-01-28T07:47:57;-0.50;99.90
46029;DHT22;31763;48.180;7.904;2023-01-28T07:50:29;-0.40;99.90
46029;DHT22;31763;48.180;7.904;2023-01-28T07:52:58;-0.40;99.90
46029;DHT22;31763;48.180;7.904;2023-01-28T07:55:25;-0.40;99.90
46029;DHT22;31763;48.180;7.904;2023-01-28T07:57:57;-0.40;99.90
46029;DHT22;31763;48.180;7.904;2023-01-28T08:00:27;-0.40;99.90
46029;DHT22;31763;48.180;7.904;2023-01-28T08:03:00;-0.30;99.90
46029;DHT22;31763;48.180;7.904;2023-01-28T08:05:46;-0.30;99.90
46029;DHT22;31763;48.180;7.904;2023-01-28T08:08:14;-0.10;99.90
46029;DHT22;31763;48.180;7.904;2023-01-28T08:10:42;-0.20;99.90
46029;DHT22;31763;48.180;7.904;2023-01-28T08:13:10;-0.20;99.90
46029;DHT22;31763;48.180;7.904;2023-01-28T08:15:39;-0.20;99.90
46029;DHT22;31763;48.180;7.904;2023-01-28T08:18:07;-0.30;99.90
46029;DHT22;31763;48.180;7.904;2023-01-28T08:20:35;-0.30;99.90
46029;DHT22;31763;48.180;7.904;2023-01-28T08:23:14;-0.20;99.90
46029;DHT22;31763;48.180;7.904;2023-01-28T08:25:43;-0.10;99.90
46029;DHT22;31763;48.180;7.904;2023-01-28T08:28:10;-0.10;99.90
46029;DHT22;31763;48.180;7.904;2023-01-28T08:30:38;-0.10;99.90
46029;DHT22;31763;48.180;7.904;2023-01-28T08:33:08;0.00;99.90
46029;DHT22;31763;48.180;7.904;2023-01-28T08:35:36;-0.10;99.90
46029;DHT22;31763;48.180;7.904;2023-01-28T08:38:05;0.00;99.90
46029;DHT22;31763;48.180;7.904;2023-01-28T08:40:33;0.00;99.90
46029;DHT22;31763;48.180;7.904;2023-01-28T08:43:01;0.10;99.90
46029;DHT22;31763;48.180;7.904;2023-01-28T08:45:29;0.10;99.90
46029;DHT22;31763;48.180;7.904;2023-01-28T08:47:59;0.20;99.90
46029;DHT22;31763;48.180;7.904;2023-01-28T08:50:33;0.20;99.90
46029;DHT22;31763;48.180;7.904;2023-01-28T08:53:03;0.20;99.90
46029;DHT22;31763;48.180;7.904;2023-01-28T08:55:33;0.10;99.90
46029;DHT22;31763;48.180;7.904;2023-01-28T08:58:05;0.30;99.90
46029;DHT22;31763;48.180;7.904;2023-01-28T09:00:33;0.20;99.90
46029;DHT22;31763;48.180;7.904;2023-01-28T09:03:01;0.30;99.90
46029;DHT22;31763;48.180;7.904;2023-01-28T09:05:32;0.40;99.90
46029;DHT22;31763;48.180;7.904;2023-01-28T09:08:01;0.50;99.90
46029;DHT22;31763;48.180;7.904;2023-01-28T09:10:32;0.50;99.90
46029;DHT22;31763;48.180;7.904;2023-01-28T09:13:04;0.50;99.90
46029;DHT22;31763;48.180;7.904;2023-01-28T09:15:35;0.60;99.90
46029;DHT22;31763;48.180;7.904;2023-01-28T09:18:03;0.80;99.90
46029;DHT22;31763;48.180;7.904;2023-01-28T09:20:31;0.90;99.90
46029;DHT22;31763;48.180;7.904;2023-01-28T09:22:59;0.80;99.90
46029;DHT22;31763;48.180;7.904;2023-01-28T09:25:26;0.80;99.90
46029;DHT22;31763;48.180;7.904;2023-01-28T09:27:53;1.00;99.90
46029;DHT22;31763;48.180;7.904;2023-01-28T09:30:20;0.80;99.90
46029;DHT22;31763;48.180;7.904;2023-01-28T09:32:51;0.80;99.90
46029;DHT22;31763;48.180;7.904;2023-01-28T09:35:19;0.90;99.90
46029;DHT22;31763;48.180;7.904;2023-01-28T09:37:46;0.80;99.90
46029;DHT22;31763;48.180;7.904;2023-01-28T09:40:20;0.60;99.90
46029;DHT22;31763;48.180;7.904;2023-01-28T09:46:12;0.60;99.90
46029;DHT22;31763;48.180;7.904;2023-01-28T09:48:47;0.70;99.90
46029;DHT22;31763;48.180;7.904;2023-01-28T09:51:39;0.70;99.90
46029;DHT22;31763;48.180;7.904;2023-01-28T09:57:08;0.80;99.90
46029;DHT22;31763;48.180;7.904;2023-01-28T09:59:38;0.80;99.90
46029;DHT22;31763;48.180;7.904;2023-01-28T10:05:06;0.70;99.90
46029;DHT22;31763;48.180;7.904;2023-01-28T10:11:21;0.70;99.90
46029;DHT22;31763;48.180;7.904;2023-01-28T10:13:52;0.70;99.90
46029;DHT22;31763;48.180;7.904;2023-01-28T10:16:37;1.00;99.90
46029;DHT22;31763;48.180;7.904;2023-01-28T10:19:30;1.10;99.90
46029;DHT22;31763;48.180;7.904;2023-01-28T10:22:31;1.10;99.90
46029;DHT22;31763;48.180;7.904;2023-01-28T10:25:05;1.30;99.90
46029;DHT22;31763;48.180;7.904;2023-01-28T10:27:35;1.40;99.90
46029;DHT22;31763;48.180;7.904;2023-01-28T10:30:22;1.40;99.90
46029;DHT22;31763;48.180;7.904;2023-01-28T10:35:22;1.00;99.90
46029;DHT22;31763;48.180;7.904;2023-01-28T10:37:53;1.00;99.90
46029;DHT22;31763;48.180;7.904;2023-01-28T10:40:24;1.00;99.90
46029;DHT22;31763;48.180;7.904;2023-01-28T10:42:51;1.00;99.90
46029;DHT22;31763;48.180;7.904;2023-01-28T10:45:29;1.10;99.90
46029;DHT22;31763;48.180;7.904;2023-01-28T10:48:20;1.00;99.90
46029;DHT22;31763;48.180;7.904;2023-01-28T10:51:05;1.10;99.90
46029;DHT22;31763;48.180;7.904;2023-01-28T10:53:37;1.00;99.90
46029;DHT22;31763;48.180;7.904;2023-01-28T10:56:30;1.20;99.90
46029;DHT22;31763;48.180;7.904;2023-01-28T10:59:06;1.20;99.90
46029;DHT22;31763;48.180;7.904;2023-01-28T11:02:01;1.20;99.90
46029;DHT22;31763;48.180;7.904;2023-01-28T11:04:32;1.20;99.90
46029;DHT22;31763;48.180;7.904;2023-01-28T11:07:13;1.20;99.90
46029;DHT22;31763;48.180;7.904;2023-01-28T11:09:50;1.30;99.90
46029;DHT22;31763;48.180;7.904;2023-01-28T11:14:54;1.40;99.90
46029;DHT22;31763;48.180;7.904;2023-01-28T11:17:25;1.40;99.90
46029;DHT22;31763;48.180;7.904;2023-01-28T11:19:57;1.40;99.90
46029;DHT22;31763;48.180;7.904;2023-01-28T11:22:49;1.30;99.90
46029;DHT22;31763;48.180;7.904;2023-01-28T11:25:31;1.30;99.90
46029;DHT22;31763;48.180;7.904;2023-01-28T11:28:12;1.40;99.90
46029;DHT22;31763;48.180;7.904;2023-01-28T11:30:43;1.40;99.90
46029;DHT22;31763;48.180;7.904;2023-01-28T11:33:18;1.30;99.90
46029;DHT22;31763;48.180;7.904;2023-01-28T11:38:53;1.20;99.90
46029;DHT22;31763;48.180;7.904;2023-01-28T11:44:00;1.20;99.90
46029;DHT22;31763;48.180;7.904;2023-01-28T11:50:04;1.40;99.90
46029;DHT22;31763;48.180;7.904;2023-01-28T11:52:59;1.40;99.90
46029;DHT22;31763;48.180;7.904;2023-01-28T11:58:32;1.40;99.90
46029;DHT22;31763;48.180;7.904;2023-01-28T12:16:14;1.70;99.90
46029;DHT22;31763;48.180;7.904;2023-01-28T12:22:03;1.70;99.90
46029;DHT22;31763;48.180;7.904;2023-01-28T12:27:50;1.40;99.90
46029;DHT22;31763;48.180;7.904;2023-01-28T12:39:11;1.50;99.90
46029;DHT22;31763;48.180;7.904;2023-01-28T12:42:03;1.30;99.90
46029;DHT22;31763;48.180;7.904;2023-01-28T12:44:42;1.20;99.90
46029;DHT22;31763;48.180;7.904;2023-01-28T12:47:16;1.30;99.90
46029;DHT22;31763;48.180;7.904;2023-01-28T12:49:52;1.30;99.90
46029;DHT22;31763;48.180;7.904;2023-01-28T12:52:25;1.30;99.90
46029;DHT22;31763;48.180;7.904;2023-01-28T12:55:03;1.30;99.90
46029;DHT22;31763;48.180;7.904;2023-01-28T12:57:38;1.40;99.90
46029;DHT22;31763;48.180;7.904;2023-01-28T13:03:17;1.50;99.90
46029;DHT22;31763;48.180;7.904;2023-01-28T13:05:54;1.40;99.90
46029;DHT22;31763;48.180;7.904;2023-01-28T13:08:26;1.40;99.90
46029;DHT22;31763;48.180;7.904;2023-01-28T13:10:56;1.50;99.90
46029;DHT22;31763;48.180;7.904;2023-01-28T13:13:29;1.50;99.90
46029;DHT22;31763;48.180;7.904;2023-01-28T13:15:58;1.40;99.90
46029;DHT22;31763;48.180;7.904;2023-01-28T13:24:01;1.30;99.90
46029;DHT22;31763;48.180;7.904;2023-01-28T13:26:40;1.10;99.90
46029;DHT22;31763;48.180;7.904;2023-01-28T13:31:46;1.20;99.90
46029;DHT22;31763;48.180;7.904;2023-01-28T13:37:15;1.20;99.90
46029;DHT22;31763;48.180;7.904;2023-01-28T13:42:42;1.40;99.90
46029;DHT22;31763;48.180;7.904;2023-01-28T13:47:48;1.30;99.90
46029;DHT22;31763;48.180;7.904;2023-01-28T13:50:20;1.30;99.90
46029;DHT22;31763;48.180;7.904;2023-01-28T13:53:01;1.30;99.90
46029;DHT22;31763;48.180;7.904;2023-01-28T13:55:35;1.30;99.90
46029;DHT22;31763;48.180;7.904;2023-01-28T14:05:03;1.30;99.90
46029;DHT22;31763;48.180;7.904;2023-01-28T14:07:53;1.10;99.90
46029;DHT22;31763;48.180;7.904;2023-01-28T14:10:37;1.20;99.90
46029;DHT22;31763;48.180;7.904;2023-01-28T14:13:25;1.30;99.90
46029;DHT22;31763;48.180;7.904;2023-01-28T14:18:46;1.10;99.90
46029;DHT22;31763;48.180;7.904;2023-01-28T14:21:19;1.30;99.90
46029;DHT22;31763;48.180;7.904;2023-01-28T14:23:52;1.10;99.90
46029;DHT22;31763;48.180;7.904;2023-01-28T14:26:49;1.10;99.90
46029;DHT22;31763;48.180;7.904;2023-01-28T14:32:21;1.00;99.90
46029;DHT22;31763;48.180;7.904;2023-01-28T14:34:53;1.10;99.90
46029;DHT22;31763;48.180;7.904;2023-01-28T14:37:24;1.10;99.90
46029;DHT22;31763;48.180;7.904;2023-01-28T14:39:57;1.10;99.90
46029;DHT22;31763;48.180;7.904;2023-01-28T14:42:37;1.10;99.90
46029;DHT22;31763;48.180;7.904;2023-01-28T14:45:21;1.00;99.90
46029;DHT22;31763;48.180;7.904;2023-01-28T14:50:56;1.20;99.90
46029;DHT22;31763;48.180;7.904;2023-01-28T14:56:38;1.40;99.90
46029;DHT22;31763;48.180;7.904;2023-01-28T14:59:35;1.40;99.90
46029;DHT22;31763;48.180;7.904;2023-01-28T15:02:21;1.30;99.90
46029;DHT22;31763;48.180;7.904;2023-01-28T15:04:50;1.30;99.90
46029;DHT22;31763;48.180;7.904;2023-01-28T15:07:22;1.20;99.90
46029;DHT22;31763;48.180;7.904;2023-01-28T15:10:20;1.10;99.90
46029;DHT22;31763;48.180;7.904;2023-01-28T15:12:57;1.00;99.90
46029;DHT22;31763;48.180;7.904;2023-01-28T15:15:34;1.10;99.90
46029;DHT22;31763;48.180;7.904;2023-01-28T15:18:22;0.90;99.90
46029;DHT22;31763;48.180;7.904;2023-01-28T15:20:54;0.90;99.90
46029;DHT22;31763;48.180;7.904;2023-01-28T15:23:36;0.90;99.90
46029;DHT22;31763;48.180;7.904;2023-01-28T15:26:24;0.90;99.90
46029;DHT22;31763;48.180;7.904;2023-01-28T15:28:54;1.00;99.90
46029;DHT22;31763;48.180;7.904;2023-01-28T15:31:24;1.10;99.90
46029;DHT22;31763;48.180;7.904;2023-01-28T15:33:57;0.80;99.90
46029;DHT22;31763;48.180;7.904;2023-01-28T15:36:28;0.80;99.90
46029;DHT22;31763;48.180;7.904;2023-01-28T15:38:56;0.70;99.90
46029;DHT22;31763;48.180;7.904;2023-01-28T15:41:29;0.80;99.90
46029;DHT22;31763;48.180;7.904;2023-01-28T15:43:59;0.80;99.90
46029;DHT22;31763;48.180;7.904;2023-01-28T15:46:26;0.70;99.90
46029;DHT22;31763;48.180;7.904;2023-01-28T15:48:59;0.80;99.90
46029;DHT22;31763;48.180;7.904;2023-01-28T15:51:29;0.70;99.90
46029;DHT22;31763;48.180;7.904;2023-01-28T15:54:08;0.80;99.90
46029;DHT22;31763;48.180;7.904;2023-01-28T15:56:36;0.80;99.90
46029;DHT22;31763;48.180;7.904;2023-01-28T15:59:33;0.80;99.90
46029;DHT22;31763;48.180;7.904;2023-01-28T16:02:24;0.80;99.90
46029;DHT22;31763;48.180;7.904;2023-01-28T16:05:02;0.70;99.90
46029;DHT22;31763;48.180;7.904;2023-01-28T16:07:31;0.90;99.90
46029;DHT22;31763;48.180;7.904;2023-01-28T16:10:01;0.90;99.90
46029;DHT22;31763;48.180;7.904;2023-01-28T16:12:29;0.80;99.90
46029;DHT22;31763;48.180;7.904;2023-01-28T16:14:58;0.80;99.90
46029;DHT22;31763;48.180;7.904;2023-01-28T16:17:48;0.80;99.90
46029;DHT22;31763;48.180;7.904;2023-01-28T16:20:21;0.90;99.90
46029;DHT22;31763;48.180;7.904;2023-01-28T16:22:50;0.80;99.90
46029;DHT22;31763;48.180;7.904;2023-01-28T16:27:47;0.90;99.90
46029;DHT22;31763;48.180;7.904;2023-01-28T16:30:15;0.90;99.90
46029;DHT22;31763;48.180;7.904;2023-01-28T16:32:42;0.90;99.90
46029;DHT22;31763;48.180;7.904;2023-01-28T16:35:23;0.90;99.90
46029;DHT22;31763;48.180;7.904;2023-01-28T16:37:57;0.70;99.90
46029;DHT22;31763;48.180;7.904;2023-01-28T16:40:25;0.90;99.90
46029;DHT22;31763;48.180;7.904;2023-01-28T16:42:53;0.90;99.90
46029;DHT22;31763;48.180;7.904;2023-01-28T16:45:22;0.90;99.90
46029;DHT22;31763;48.180;7.904;2023-01-28T16:47:51;1.00;99.90
46029;DHT22;31763;48.180;7.904;2023-01-28T16:50:19;0.90;99.90
46029;DHT22;31763;48.180;7.904;2023-01-28T16:52:49;1.00;99.90
46029;DHT22;31763;48.180;7.904;2023-01-28T16:55:19;0.80;99.90
46029;DHT22;31763;48.180;7.904;2023-01-28T16:57:49;0.80;99.90
46029;DHT22;31763;48.180;7.904;2023-01-28T17:00:19;0.90;99.90
46029;DHT22;31763;48.180;7.904;2023-01-28T17:02:52;0.80;99.90
46029;DHT22;31763;48.180;7.904;2023-01-28T17:05:20;1.00;99.90
46029;DHT22;31763;48.180;7.904;2023-01-28T17:07:48;0.90;99.90
46029;DHT22;31763;48.180;7.904;2023-01-28T17:10:16;0.80;99.90
46029;DHT22;31763;48.180;7.904;2023-01-28T17:12:43;0.90;99.90
46029;DHT22;31763;48.180;7.904;2023-01-28T17:15:10;0.70;99.90
46029;DHT22;31763;48.180;7.904;2023-01-28T17:17:37;0.80;99.90
46029;DHT22;31763;48.180;7.904;2023-01-28T17:20:04;0.80;99.90
46029;DHT22;31763;48.180;7.904;2023-01-28T17:22:32;0.80;99.90
46029;DHT22;31763;48.180;7.904;2023-01-28T17:24:58;0.70;99.90
46029;DHT22;31763;48.180;7.904;2023-01-28T17:27:25;0.90;99.90
46029;DHT22;31763;48.180;7.904;2023-01-28T17:29:52;0.80;99.90
46029;DHT22;31763;48.180;7.904;2023-01-28T17:32:19;0.90;99.90
46029;DHT22;31763;48.180;7.904;2023-01-28T17:34:46;1.00;99.90
46029;DHT22;31763;48.180;7.904;2023-01-28T17:37:13;0.90;99.90
46029;DHT22;31763;48.180;7.904;2023-01-28T17:39:40;0.80;99.90
46029;DHT22;31763;48.180;7.904;2023-01-28T17:42:07;0.80;99.90
46029;DHT22;31763;48.180;7.904;2023-01-28T17:44:34;0.90;99.90
46029;DHT22;31763;48.180;7.904;2023-01-28T17:47:00;0.80;99.90
46029;DHT22;31763;48.180;7.904;2023-01-28T17:49:27;1.00;99.90
46029;DHT22;31763;48.180;7.904;2023-01-28T17:51:54;1.10;99.90
46029;DHT22;31763;48.180;7.904;2023-01-28T17:54:23;1.20;99.90
46029;DHT22;31763;48.180;7.904;2023-01-28T17:56:51;1.00;99.90
46029;DHT22;31763;48.180;7.904;2023-01-28T17:59:18;0.90;99.90
46029;DHT22;31763;48.180;7.904;2023-01-28T18:01:44;0.90;99.90
46029;DHT22;31763;48.180;7.904;2023-01-28T18:04:12;0.70;99.90
46029;DHT22;31763;48.180;7.904;2023-01-28T18:06:39;0.70;99.90